Yabucoa, Puerto Rico
Current Conditions -  °F | °C
As of 10:53 AM on Thursday 18 Dec 2014 (Local Time) from TJNR Reporting Station
Clear Clear  
Wind Chill: 28°   Ceiling: Unl
Heat Index: 30°   Visibility: 10mi
Dew Point: 21°   Wind: 13mph
Humidity: 63%   Direction: 30°NNE
Pressure: 30.07"   Gusts: NA
Location:  18.05°N, 65.88°W
Report Text: TJNR 181453Z AUTO 03011KT 10SM CLR 28/21 A3007 RMK AO2 SLP183 T02830206 50007 $
Loading
Personal Weather Stations






























Interactive Weather Map New forecast layout! Learn more

10-Day Weather Forecast

Advertisements
Track Severe Weather on mobile